Phoenix, AZ (85065)

10:30 AM MST on July 03, 2015 (GMT -0700)
Loma Linda | | Change Station
CLOSE
Current Station
Personal Weather Station
Location: Phoenix, AZ
Elevation: 1125 ft
Nearby Weather Stations

Elev 1125 ft 33.48 °N, 112.04 °W | Updated 3 minutes ago

Overcast
Overcast
93.2 °F
Feels Like 96 °F
N
0.0
Wind Variable Wind from NNE

Today
High -- | Low -- °F
--% Chance of Precip.
Yesterday
High -- | Low -- °F
Precip. -- in
5:22 AM 7:41 PM
Waning Gibbous, 97% visible
Pressure 29.83 in
Visibility 10.0 miles
Clouds Few 10000 ft
Scattered Clouds 14000 ft
Overcast 22000 ft
Heat Index 96 °F
Dew Point 66 °F
Humidity 41%
Rainfall 0.02 in
Snow Depth Not available.
UV 3 out of 12
Pollen 3.80 out of 12
Air Quality Not available.
Flu Activity Not available.
METAR KPHX 031651Z VRB03KT 10SM FEW100 SCT140 OVC220 32/18 A2989 RMK AO2 SLP099 T03170178

More Conditions Fewer Conditions

Pressure 29.83 in
Visibility 10.0 miles
Clouds Few 10000 ft
Scattered Clouds 14000 ft
Overcast 22000 ft
Heat Index 96 °F
Dew Point 66 °F
Humidity 41%
Rainfall 0.02 in
Snow Depth Not available.
UV 3 out of 12
Pollen 3.80 out of 12
Air Quality Not available.
Flu Activity Not available.
METAR KPHX 031651Z VRB03KT 10SM FEW100 SCT140 OVC220 32/18 A2989 RMK AO2 SLP099 T03170178

More Conditions Fewer Conditions

10-Day Weather Forecast

×

Almanac

Astronomy

Jul. 03, 2015 Rise Set
Actual Time
Civil Twilight
Nautical Twilight
Astronomical Twilight
Moon
Length of Visible Light
Length of Day
Tomorrow will be .
, % of the Moon is Illuminated

Today's Extremes

State Highs State Lows

Community

WunderPhotos

Upload Photos

1,834,727 photos uploaded!

WunderBlogs® & News

Nearby

Air Quality

  Air Quality AQ Index Pollutant
Not available.

Snow Depth

Station Depth Elevation

Earthquake Activity

City Distance Mag. Time & Date
Minimum magnitude displayed is 2.5.

Coastal Water Temperatures

Place Temperature

Stations

Nearby Weather Stations

Station Location Temp. Windchill Dew Point Humidity Wind Precip. Elev Updated Type